Observation data for Tulia on 03/10/2018      Previous  Date  Next       Current Mesonet Observations  Soil Data  Daily Summary Page  Observations in Plain Language
KTIS 100600Z 12005KT 09/M08 A2984 RMK A01 T00891080  RH  030%=      5-min Rain = 0
KTIS 100605Z 12006KT 09/M08 A2984 RMK A01 T00881082  RH  030%=      5-min Rain = 0
KTIS 100610Z 12006KT 08/M08 A2984 RMK A01 T00841079  RH  031%=      5-min Rain = 0
KTIS 100615Z 11006KT 08/M08 A2984 RMK A01 T00801079  RH  032%=      5-min Rain = 0
KTIS 100620Z 11006KT 08/M08 A2984 RMK A01 T00801076  RH  032%=      5-min Rain = 0
KTIS 100625Z 11006KT 08/M07 A2983 RMK A01 T00771069  RH  035%=      5-min Rain = 0
KTIS 100630Z 11007KT 07/M06 A2983 RMK A01 T00721056  RH  040%=      5-min Rain = 0
KTIS 100635Z 11006KT 07/M06 A2983 RMK A01 T00681061  RH  040%=      5-min Rain = 0
KTIS 100640Z 11006KT 07/M06 A2983 RMK A01 T00691060  RH  040%=      5-min Rain = 0
KTIS 100645Z 13006KT 07/M06 A2983 RMK A01 T00661062  RH  040%=      5-min Rain = 0
KTIS 100650Z 14005KT 07/M05 A2983 RMK A01 T00691053  RH  042%=      5-min Rain = 0
KTIS 100655Z 14006KT 07/M04 A2983 RMK A01 T00691042  RH  046%=      5-min Rain = 0
KTIS 100700Z 14007KT 06/M03 A2983 RMK A01 T00611034  RH  051%=      5-min Rain = 0
KTIS 100705Z 14007KT 06/M04 A2983 RMK A01 T00571035  RH  052%=      5-min Rain = 0
KTIS 100710Z 14007KT 06/M03 A2982 RMK A01 T00561032  RH  054%=      5-min Rain = 0
KTIS 100715Z 14007KT 05/M03 A2982 RMK A01 T00531029  RH  056%=      5-min Rain = 0
KTIS 100720Z 15006KT 05/M03 A2982 RMK A01 T00511032  RH  056%=      5-min Rain = 0
KTIS 100725Z 15006KT 05/M03 A2982 RMK A01 T00491032  RH  056%=      5-min Rain = 0
KTIS 100730Z 16006KT 05/M03 A2982 RMK A01 T00501034  RH  055%=      5-min Rain = 0
KTIS 100735Z 16007KT 05/M03 A2982 RMK A01 T00521032  RH  055%=      5-min Rain = 0
KTIS 100740Z 15007KT 05/M03 A2982 RMK A01 T00531030  RH  055%=      5-min Rain = 0
KTIS 100745Z 16006KT 05/M03 A2982 RMK A01 T00541033  RH  054%=      5-min Rain = 0
KTIS 100750Z 16006KT 05/M06 A2982 RMK A01 T00521057  RH  046%=      5-min Rain = 0
KTIS 100755Z 16006KT 05/M06 A2981 RMK A01 T00541059  RH  044%=      5-min Rain = 0
KTIS 100800Z 16006KT 06/M06 A2981 RMK A01 T00561062  RH  043%=      5-min Rain = 0
KTIS 100805Z 16006KT 06/M06 A2981 RMK A01 T00571063  RH  042%=      5-min Rain = 0
KTIS 100810Z 17007KT 06/M07 A2981 RMK A01 T00571065  RH  042%=      5-min Rain = 0
KTIS 100815Z 17007KT 05/M06 A2981 RMK A01 T00541064  RH  043%=      5-min Rain = 0
KTIS 100820Z 17007KT 06/M06 A2981 RMK A01 T00551059  RH  044%=      5-min Rain = 0
KTIS 100825Z 17007KT 06/M06 A2981 RMK A01 T00611057  RH  043%=      5-min Rain = 0
KTIS 100830Z 18006KT 06/M06 A2981 RMK A01 T00611064  RH  041%=      5-min Rain = 0
KTIS 100835Z 17007KT 06/M06 A298 RMK A01 T00581058  RH  043%=      5-min Rain = 0
KTIS 100840Z 18007KT 06/M07 A298 RMK A01 T00581065  RH  041%=      5-min Rain = 0
KTIS 100845Z 17007KT 06/M06 A298 RMK A01 T00571060  RH  043%=      5-min Rain = 0
KTIS 100850Z 18007KT 06/M06 A298 RMK A01 T00591057  RH  044%=      5-min Rain = 0
KTIS 100855Z 18008KT 06/M06 A298 RMK A01 T00561062  RH  043%=      5-min Rain = 0
KTIS 100900Z 18008KT 06/M06 A2979 RMK A01 T00611061  RH  041%=      5-min Rain = 0
KTIS 100905Z 19008KT 06/M07 A2979 RMK A01 T00621065  RH  040%=      5-min Rain = 0
KTIS 100910Z 19007KT 06/M06 A2979 RMK A01 T00591064  RH  041%=      5-min Rain = 0
KTIS 100915Z 19007KT 06/M07 A2979 RMK A01 T00581067  RH  041%=      5-min Rain = 0
KTIS 100920Z 20007KT 06/M07 A2979 RMK A01 T00581066  RH  041%=      5-min Rain = 0
KTIS 100925Z 18007KT 06/M07 A2979 RMK A01 T00591069  RH  040%=      5-min Rain = 0
KTIS 100930Z 19007KT 06/M07 A2979 RMK A01 T00581071  RH  040%=      5-min Rain = 0
KTIS 100935Z 18008KT 06/M07 A2979 RMK A01 T00561071  RH  040%=      5-min Rain = 0
KTIS 100940Z 19008KT 06/M07 A2979 RMK A01 T00561073  RH  040%=      5-min Rain = 0
KTIS 100945Z 19008KT 06/M07 A2979 RMK A01 T00551074  RH  039%=      5-min Rain = 0
KTIS 100950Z 21007KT 06/M08 A2979 RMK A01 T00581077  RH  038%=      5-min Rain = 0
KTIS 100955Z 23004KT 05/M07 A2979 RMK A01 T00541073  RH  040%=      5-min Rain = 0
KTIS 101000Z 21005KT 05/M07 A2979 RMK A01 T00491072  RH  042%=      5-min Rain = 0
KTIS 101005Z 23005KT 06/M08 A298 RMK A01 T00551075  RH  039%=      5-min Rain = 0
KTIS 101010Z 24005KT 05/M08 A298 RMK A01 T00531075  RH  039%=      5-min Rain = 0
KTIS 101015Z 23007KT 05/M08 A298 RMK A01 T00481076  RH  040%=      5-min Rain = 0
KTIS 101020Z 24007KT 05/M08 A298 RMK A01 T00511076  RH  040%=      5-min Rain = 0
KTIS 101025Z 25008KT 05/M07 A298 RMK A01 T00511074  RH  040%=      5-min Rain = 0
KTIS 101030Z 26008KT 05/M07 A2981 RMK A01 T00491073  RH  041%=      5-min Rain = 0
KTIS 101035Z 26008KT 05/M07 A2981 RMK A01 T00491073  RH  041%=      5-min Rain = 0
KTIS 101040Z 26008KT 05/M07 A2981 RMK A01 T00521073  RH  041%=      5-min Rain = 0
KTIS 101045Z 28007KT 05/M07 A2982 RMK A01 T00531073  RH  040%=      5-min Rain = 0
KTIS 101050Z 30009KT 05/M07 A2982 RMK A01 T00451067  RH  045%=      5-min Rain = 0
KTIS 101055Z 29010KT 04/M07 A2982 RMK A01 T00411065  RH  046%=      5-min Rain = 0
KTIS 101100Z 29008KT 04/M07 A2982 RMK A01 T00371067  RH  047%=      5-min Rain = 0
KTIS 101105Z 29009KT 04/M07 A2982 RMK A01 T00361067  RH  047%=      5-min Rain = 0
KTIS 101110Z 28008KT 04/M07 A2982 RMK A01 T00361067  RH  047%=      5-min Rain = 0
KTIS 101115Z 27008KT 04/M07 A2981 RMK A01 T00361068  RH  047%=      5-min Rain = 0
KTIS 101120Z 27007KT 04/M07 A2981 RMK A01 T00391068  RH  046%=      5-min Rain = 0
KTIS 101125Z 27007KT 05/M07 A2981 RMK A01 T00461067  RH  044%=      5-min Rain = 0
KTIS 101130Z 27007KT 05/M07 A2982 RMK A01 T00481068  RH  043%=      5-min Rain = 0
KTIS 101135Z 28008KT 05/M07 A2982 RMK A01 T00461067  RH  044%=      5-min Rain = 0
KTIS 101140Z 28009KT 05/M07 A2982 RMK A01 T00461066  RH  045%=      5-min Rain = 0
KTIS 101145Z 27008KT 05/M07 A2981 RMK A01 T00461066  RH  045%=      5-min Rain = 0
KTIS 101150Z 27007KT 05/M07 A2981 RMK A01 T00471067  RH  044%=      5-min Rain = 0
KTIS 101155Z 27006KT 05/M07 A2981 RMK A01 T00451067  RH  044%=      5-min Rain = 0
KTIS 101200Z 27006KT 04/M07 A2981 RMK A01 T00421067  RH  046%=      5-min Rain = 0
KTIS 101205Z 27007KT 04/M07 A2981 RMK A01 T00421066  RH  046%=      5-min Rain = 0
KTIS 101210Z 27008KT 05/M07 A2981 RMK A01 T00451066  RH  045%=      5-min Rain = 0
KTIS 101215Z 28008KT 05/M07 A2981 RMK A01 T00461066  RH  044%=      5-min Rain = 0
KTIS 101220Z 28008KT 05/M07 A2981 RMK A01 T00481067  RH  044%=      5-min Rain = 0
KTIS 101225Z 28009KT 05/M07 A2981 RMK A01 T00491068  RH  043%=      5-min Rain = 0
KTIS 101230Z 27008KT 05/M07 A2981 RMK A01 T00501068  RH  043%=      5-min Rain = 0
KTIS 101235Z 27008KT 05/M07 A2981 RMK A01 T00531068  RH  041%=      5-min Rain = 0
KTIS 101240Z 27009KT 06/M07 A2981 RMK A01 T00551067  RH  042%=      5-min Rain = 0
KTIS 101245Z 27009KT 06/M07 A2981 RMK A01 T00601067  RH  040%=      5-min Rain = 0
KTIS 101250Z 29010KT 06/M07 A2982 RMK A01 T00571067  RH  041%=      5-min Rain = 0
KTIS 101255Z 33008KT 03/M07 A2982 RMK A01 T00331074  RH  046%=      5-min Rain = 0
KTIS 101300Z 31009KT 02/M07 A2982 RMK A01 T00161072  RH  053%=      5-min Rain = 0
KTIS 101305Z 29009KT 02/M07 A2982 RMK A01 T00161073  RH  052%=      5-min Rain = 0
KTIS 101310Z 28010KT 02/M07 A2982 RMK A01 T00161073  RH  052%=      5-min Rain = 0
KTIS 101315Z 28009KT 01/M07 A2982 RMK A01 T00141073  RH  053%=      5-min Rain = 0
KTIS 101320Z 30007KT 01/M07 A2982 RMK A01 T00101073  RH  054%=      5-min Rain = 0
KTIS 101325Z 30006KT 00/M08 A2982 RMK A01 T00011077  RH  057%=      5-min Rain = 0
KTIS 101330Z 29006KT M01/M08 A2982 RMK A01 T10051077  RH  059%=      5-min Rain = 0
KTIS 101335Z 29007KT M01/M07 A2982 RMK A01 T10051074  RH  060%=      5-min Rain = 0
KTIS 101340Z 28008KT 00/M07 A2982 RMK A01 T00031070  RH  059%=      5-min Rain = 0
KTIS 101345Z 28008KT 01/M07 A2982 RMK A01 T00141066  RH  056%=      5-min Rain = 0
KTIS 101350Z 27008KT 03/M06 A2982 RMK A01 T00261064  RH  052%=      5-min Rain = 0
KTIS 101355Z 27008KT 04/M06 A2982 RMK A01 T00401062  RH  048%=      5-min Rain = 0
KTIS 101400Z 26011KT 06/M06 A2982 RMK A01 T00591064  RH  041%=      5-min Rain = 0
KTIS 101405Z 26012KT 07/M06 A2982 RMK A01 T00671064  RH  039%=      5-min Rain = 0
KTIS 101410Z 26013KT 07/M06 A2982 RMK A01 T00731064  RH  037%=      5-min Rain = 0
KTIS 101415Z 25013KT 08/M06 A2982 RMK A01 T00791063  RH  036%=      5-min Rain = 0
KTIS 101420Z 25013KT 09/M06 A2982 RMK A01 T00851062  RH  035%=      5-min Rain = 0
KTIS 101425Z 26013KT 09/M06 A2982 RMK A01 T00901061  RH  034%=      5-min Rain = 0
KTIS 101430Z 25013KT 10/M06 A2982 RMK A01 T00951059  RH  033%=      5-min Rain = 0
KTIS 101435Z 25013KT 10/M06 A2982 RMK A01 T00991058  RH  033%=      5-min Rain = 0
KTIS 101440Z 25012KT 11/M06 A2982 RMK A01 T01051055  RH  033%=      5-min Rain = 0
KTIS 101445Z 25012KT 11/M05 A2982 RMK A01 T01111053  RH  032%=      5-min Rain = 0
KTIS 101450Z 25013KT 12/M06 A2982 RMK A01 T01181056  RH  030%=      5-min Rain = 0
KTIS 101455Z 25013KT 13/M06 A2982 RMK A01 T01261057  RH  028%=      5-min Rain = 0
KTIS 101500Z 25012KT 13/M06 A2982 RMK A01 T01321056  RH  027%=      5-min Rain = 0
KTIS 101505Z 25012KT 14/M06 A2982 RMK A01 T01391057  RH  025%=      5-min Rain = 0
KTIS 101510Z 25012KT 15/M06 A2982 RMK A01 T01451060  RH  024%=      5-min Rain = 0
KTIS 101515Z 25013KT 15/M06 A2982 RMK A01 T01511063  RH  022%=      5-min Rain = 0
KTIS 101520Z 25013KT 16/M07 A2982 RMK A01 T01551065  RH  022%=      5-min Rain = 0
KTIS 101525Z 26012KT 16/M06 A2982 RMK A01 T01591064  RH  021%=      5-min Rain = 0
KTIS 101530Z 26011KT 16/M07 A2982 RMK A01 T01641065  RH  020%=      5-min Rain = 0
KTIS 101535Z 27012KT 17/M07 A2982 RMK A01 T01691067  RH  020%=      5-min Rain = 0
KTIS 101540Z 26012KT 17/M07 A2983 RMK A01 T01721067  RH  019%=      5-min Rain = 0
KTIS 101545Z 26010KT 18/M07 A2983 RMK A01 T01781067  RH  018%=      5-min Rain = 0
KTIS 101550Z 28012KT 18/M07 A2983 RMK A01 T01831071  RH  017%=      5-min Rain = 0
KTIS 101555Z 27014G19KT 19/M08 A2983 RMK A01 T01871079  RH  016%=      5-min Rain = 0
KTIS 101600Z 28013KT 19/M08 A2983 RMK A01 T01921081  RH  015%=      5-min Rain = 0
KTIS 101605Z 28013KT 20/M09 A2982 RMK A01 T01971090  RH  014%=      5-min Rain = 0
KTIS 101610Z 28013KT 20/M09 A2982 RMK A01 T02011090  RH  013%=      5-min Rain = 0
KTIS 101615Z 28012KT 20/M09 A2982 RMK A01 T02041091  RH  013%=      5-min Rain = 0
KTIS 101620Z 27012KT 21/M09 A2982 RMK A01 T02071090  RH  013%=      5-min Rain = 0
KTIS 101625Z 29013KT 21/M10 A2982 RMK A01 T02101096  RH  012%=      5-min Rain = 0
KTIS 101630Z 28012KT 22/M09 A2982 RMK A01 T02161092  RH  012%=      5-min Rain = 0
KTIS 101635Z 28012KT 22/M10 A2982 RMK A01 T02181096  RH  011%=      5-min Rain = 0
KTIS 101640Z 29014KT 22/M10 A2982 RMK A01 T02211100  RH  011%=      5-min Rain = 0
KTIS 101645Z 30014KT 22/M10 A2982 RMK A01 T02221101  RH  011%=      5-min Rain = 0
KTIS 101650Z 29014KT 23/M10 A2982 RMK A01 T02261101  RH  010%=      5-min Rain = 0
KTIS 101655Z 29014G19KT 23/M10 A2982 RMK A01 T02291101  RH  010%=      5-min Rain = 0
KTIS 101700Z 29015KT 23/M10 A2982 RMK A01 T02301103  RH  010%=      5-min Rain = 0
KTIS 101705Z 29015KT 23/M10 A2982 RMK A01 T02311102  RH  010%=      5-min Rain = 0
KTIS 101710Z 30016KT 23/M11 A2982 RMK A01 T02311111  RH  009%=      5-min Rain = 0
KTIS 101715Z 31015G20KT 23/M11 A2982 RMK A01 T02321112  RH  009%=      5-min Rain = 0
KTIS 101720Z 30016G22KT 24/M11 A2982 RMK A01 T02371109  RH  009%=      5-min Rain = 0
KTIS 101725Z 32017G23KT 24/M11 A2982 RMK A01 T02351113  RH  009%=      5-min Rain = 0
KTIS 101730Z 32015G22KT 24/M11 A2982 RMK A01 T02381110  RH  009%=      5-min Rain = 0
KTIS 101735Z 32015G20KT 24/M11 A2982 RMK A01 T02371110  RH  009%=      5-min Rain = 0
KTIS 101740Z 32017G22KT 24/M11 A2982 RMK A01 T02391110  RH  009%=      5-min Rain = 0
KTIS 101745Z 32016G23KT 24/M11 A2982 RMK A01 T02391106  RH  009%=      5-min Rain = 0
KTIS 101750Z 33017G22KT 24/M11 A2982 RMK A01 T02361107  RH  009%=      5-min Rain = 0
KTIS 101755Z 32013G18KT 24/M11 A2982 RMK A01 T02381105  RH  009%=      5-min Rain = 0
KTIS 101800Z 31015G24KT 24/M11 A2981 RMK A01 T02401107  RH  009%=      5-min Rain = 0
KTIS 101805Z 31014G20KT 24/M11 A2981 RMK A01 T02421106  RH  009%=      5-min Rain = 0
KTIS 101810Z 31015KT 25/M11 A2981 RMK A01 T02461109  RH  009%=      5-min Rain = 0
KTIS 101815Z 32013G22KT 24/M11 A2981 RMK A01 T02421111  RH  009%=      5-min Rain = 0
KTIS 101820Z 31014G22KT 24/M11 A2981 RMK A01 T02441110  RH  009%=      5-min Rain = 0
KTIS 101825Z 29015G20KT 25/M11 A2981 RMK A01 T02461108  RH  009%=      5-min Rain = 0
KTIS 101830Z 32013KT 25/M11 A2981 RMK A01 T02461111  RH  009%=      5-min Rain = 0
KTIS 101835Z 31015G21KT 25/M11 A2981 RMK A01 T02471111  RH  009%=      5-min Rain = 0
KTIS 101840Z 31014G22KT 25/M11 A2981 RMK A01 T02501107  RH  009%=      5-min Rain = 0
KTIS 101845Z 31017G22KT 25/M11 A298 RMK A01 T02521107  RH  009%=      5-min Rain = 0
KTIS 101850Z 30015G26KT 25/M11 A298 RMK A01 T02471111  RH  009%=      5-min Rain = 0
KTIS 101855Z 31016G22KT 25/M11 A298 RMK A01 T02491110  RH  008%=      5-min Rain = 0
KTIS 101900Z 31014KT 25/M11 A298 RMK A01 T02491109  RH  009%=      5-min Rain = 0
KTIS 101905Z 31013G22KT 25/M11 A2979 RMK A01 T02511107  RH  009%=      5-min Rain = 0
KTIS 101910Z 31016G24KT 25/M11 A2979 RMK A01 T02511109  RH  008%=      5-min Rain = 0
KTIS 101915Z 32015G22KT 25/M11 A2979 RMK A01 T02501109  RH  009%=      5-min Rain = 0
KTIS 101920Z 31015G28KT 25/M11 A2979 RMK A01 T02501108  RH  009%=      5-min Rain = 0
KTIS 101925Z 31014G20KT 25/M11 A2979 RMK A01 T02521108  RH  009%=      5-min Rain = 0
KTIS 101930Z 30012G17KT 25/M11 A2978 RMK A01 T02541105  RH  009%=      5-min Rain = 0
KTIS 101935Z 30016G23KT 25/M11 A2978 RMK A01 T02511108  RH  009%=      5-min Rain = 0
KTIS 101940Z 30014G21KT 25/M11 A2978 RMK A01 T02511108  RH  009%=      5-min Rain = 0
KTIS 101945Z 30017G24KT 25/M11 A2977 RMK A01 T02501109  RH  009%=      5-min Rain = 0
KTIS 101950Z 30016G21KT 25/M11 A2977 RMK A01 T02491109  RH  009%=      5-min Rain = 0
KTIS 101955Z 31016G22KT 25/M11 A2977 RMK A01 T02521106  RH  009%=      5-min Rain = 0
KTIS 102000Z 30016G25KT 25/M11 A2977 RMK A01 T02541106  RH  009%=      5-min Rain = 0
KTIS 102005Z 29013G18KT 25/M11 A2977 RMK A01 T02531105  RH  009%=      5-min Rain = 0
KTIS 102010Z 28010KT 25/M10 A2977 RMK A01 T02521104  RH  009%=      5-min Rain = 0
KTIS 102015Z 31016G22KT 25/M11 A2976 RMK A01 T02541106  RH  009%=      5-min Rain = 0
KTIS 102020Z 30016G22KT 25/M11 A2976 RMK A01 T02521108  RH  009%=      5-min Rain = 0
KTIS 102025Z 32012KT 25/M11 A2976 RMK A01 T02491109  RH  009%=      5-min Rain = 0
KTIS 102030Z 30012G19KT 25/M11 A2977 RMK A01 T02511107  RH  009%=      5-min Rain = 0
KTIS 102035Z 30011G20KT 25/M11 A2977 RMK A01 T02501109  RH  009%=      5-min Rain = 0
KTIS 102040Z 31009G18KT 25/M11 A2977 RMK A01 T02461110  RH  009%=      5-min Rain = 0
KTIS 102045Z 31014G21KT 25/M11 A2976 RMK A01 T02501109  RH  009%=      5-min Rain = 0
KTIS 102050Z 32013G19KT 25/M11 A2976 RMK A01 T02511108  RH  009%=      5-min Rain = 0
KTIS 102055Z 32014G20KT 25/M11 A2976 RMK A01 T02521106  RH  009%=      5-min Rain = 0
KTIS 102100Z 30011KT 25/M11 A2976 RMK A01 T02541107  RH  009%=      5-min Rain = 0
KTIS 102105Z 31011G17KT 25/M11 A2976 RMK A01 T02541105  RH  009%=      5-min Rain = 0
KTIS 102110Z 31013G19KT 26/M11 A2976 RMK A01 T02561106  RH  008%=      5-min Rain = 0
KTIS 102115Z 30010G17KT 26/M11 A2976 RMK A01 T02551105  RH  009%=      5-min Rain = 0
KTIS 102120Z 30011G17KT 26/M10 A2976 RMK A01 T02561103  RH  009%=      5-min Rain = 0
KTIS 102125Z 33013G19KT 25/M11 A2976 RMK A01 T02531105  RH  009%=      5-min Rain = 0
KTIS 102130Z 33010KT 25/M11 A2976 RMK A01 T02521107  RH  009%=      5-min Rain = 0
KTIS 102135Z 31010G15KT 25/M11 A2976 RMK A01 T02531106  RH  009%=      5-min Rain = 0
KTIS 102140Z 27008KT 25/M11 A2976 RMK A01 T02531105  RH  009%=      5-min Rain = 0
KTIS 102145Z 28011G17KT 25/M10 A2976 RMK A01 T02541104  RH  009%=      5-min Rain = 0
KTIS 102150Z 29010G15KT 25/M11 A2976 RMK A01 T02531107  RH  009%=      5-min Rain = 0
KTIS 102155Z 30006KT 25/M11 A2976 RMK A01 T02521108  RH  009%=      5-min Rain = 0
KTIS 102200Z 32008KT 25/M11 A2976 RMK A01 T02541106  RH  009%=      5-min Rain = 0
KTIS 102205Z 33008KT 25/M11 A2976 RMK A01 T02531112  RH  008%=      5-min Rain = 0
KTIS 102210Z 29011G16KT 25/M11 A2976 RMK A01 T02521109  RH  008%=      5-min Rain = 0
KTIS 102215Z 30011G16KT 25/M11 A2976 RMK A01 T02501111  RH  008%=      5-min Rain = 0
KTIS 102220Z 30009G22KT 25/M11 A2976 RMK A01 T02541105  RH  009%=      5-min Rain = 0
KTIS 102225Z 35010KT 25/M11 A2976 RMK A01 T02481105  RH  009%=      5-min Rain = 0
KTIS 102230Z 01007KT 24/M11 A2976 RMK A01 T02421107  RH  009%=      5-min Rain = 0
KTIS 102235Z 35005KT 24/M11 A2976 RMK A01 T02411107  RH  009%=      5-min Rain = 0
KTIS 102240Z 35009KT 25/M11 A2976 RMK A01 T02451105  RH  009%=      5-min Rain = 0
KTIS 102245Z 00005G10KT 25/M10 A2977 RMK A01 T02471103  RH  009%=      5-min Rain = 0
KTIS 102250Z 34007KT 24/M11 A2977 RMK A01 T02441106  RH  009%=      5-min Rain = 0
KTIS 102255Z 34009KT 24/M11 A2977 RMK A01 T02391107  RH  009%=      5-min Rain = 0
KTIS 102300Z 34008KT 24/M11 A2977 RMK A01 T02381107  RH  009%=      5-min Rain = 0
KTIS 102305Z 00008KT 24/M11 A2977 RMK A01 T02401106  RH  009%=      5-min Rain = 0
KTIS 102310Z 36009KT 24/M11 A2977 RMK A01 T02391106  RH  009%=      5-min Rain = 0
KTIS 102315Z 36009KT 24/M11 A2977 RMK A01 T02381108  RH  009%=      5-min Rain = 0
KTIS 102320Z 34007KT 24/M11 A2977 RMK A01 T02361107  RH  009%=      5-min Rain = 0
KTIS 102325Z 34008KT 24/M11 A2977 RMK A01 T02351106  RH  010%=      5-min Rain = 0
KTIS 102330Z 34009G15KT 23/M11 A2977 RMK A01 T02331108  RH  010%=      5-min Rain = 0
KTIS 102335Z 00012KT 23/M11 A2977 RMK A01 T02291107  RH  010%=      5-min Rain = 0
KTIS 102340Z 01009KT 23/M11 A2978 RMK A01 T02251106  RH  010%=      5-min Rain = 0
KTIS 102345Z 01009KT 22/M11 A2978 RMK A01 T02231106  RH  010%=      5-min Rain = 0
KTIS 102350Z 01005KT 22/M11 A2978 RMK A01 T02201105  RH  011%=      5-min Rain = 0
KTIS 102355Z 02004KT 22/M11 A2978 RMK A01 T02161105  RH  011%=      5-min Rain = 0
KTIS 110000Z 02006KT 21/M11 A2979 RMK A01 T02131107  RH  011%=      5-min Rain = 0
KTIS 110005Z 04006KT 21/M11 A2979 RMK A01 T02091109  RH  011%=      5-min Rain = 0
KTIS 110010Z 04006KT 20/M11 A2979 RMK A01 T02011107  RH  012%=      5-min Rain = 0
KTIS 110015Z 04006KT 20/M11 A2979 RMK A01 T01951109  RH  012%=      5-min Rain = 0
KTIS 110020Z 05006KT 19/M11 A2979 RMK A01 T01901108  RH  012%=      5-min Rain = 0
KTIS 110025Z 04007KT 19/M11 A2979 RMK A01 T01851106  RH  013%=      5-min Rain = 0
KTIS 110030Z 04008KT 18/M11 A2979 RMK A01 T01831113  RH  013%=      5-min Rain = 0
KTIS 110035Z 04008KT 18/M12 A2979 RMK A01 T01811115  RH  012%=      5-min Rain = 0
KTIS 110040Z 03007KT 18/M12 A2979 RMK A01 T01791116  RH  013%=      5-min Rain = 0
KTIS 110045Z 03008KT 18/M12 A2979 RMK A01 T01781117  RH  012%=      5-min Rain = 0
KTIS 110050Z 03008KT 18/M12 A298 RMK A01 T01771118  RH  012%=      5-min Rain = 0
KTIS 110055Z 02010KT 18/M12 A298 RMK A01 T01751116  RH  013%=      5-min Rain = 0
KTIS 110100Z 02012KT 18/M11 A298 RMK A01 T01761107  RH  014%=      5-min Rain = 0
KTIS 110105Z 03011KT 18/M11 A2981 RMK A01 T01751106  RH  014%=      5-min Rain = 0
KTIS 110110Z 04010KT 17/M11 A2981 RMK A01 T01721105  RH  014%=      5-min Rain = 0
KTIS 110115Z 03008KT 17/M11 A2981 RMK A01 T01651106  RH  015%=      5-min Rain = 0
KTIS 110120Z 03008KT 16/M11 A2982 RMK A01 T01611106  RH  015%=      5-min Rain = 0
KTIS 110125Z 03009KT 16/M10 A2982 RMK A01 T01591103  RH  016%=      5-min Rain = 0
KTIS 110130Z 03008KT 16/M10 A2982 RMK A01 T01591102  RH  016%=      5-min Rain = 0
KTIS 110135Z 03008KT 16/M10 A2983 RMK A01 T01571100  RH  016%=      5-min Rain = 0
KTIS 110140Z 03008KT 16/M10 A2983 RMK A01 T01561100  RH  016%=      5-min Rain = 0
KTIS 110145Z 03007KT 15/M10 A2983 RMK A01 T01501100  RH  017%=      5-min Rain = 0
KTIS 110150Z 03007KT 15/M10 A2984 RMK A01 T01461100  RH  017%=      5-min Rain = 0
KTIS 110155Z 04007KT 14/M10 A2984 RMK A01 T01421100  RH  018%=      5-min Rain = 0
KTIS 110200Z 03007KT 14/M10 A2984 RMK A01 T01391099  RH  018%=      5-min Rain = 0
KTIS 110205Z 02008KT 14/M10 A2984 RMK A01 T01401098  RH  018%=      5-min Rain = 0
KTIS 110210Z 03007KT 14/M10 A2984 RMK A01 T01411100  RH  018%=      5-min Rain = 0
KTIS 110215Z 03007KT 14/M10 A2985 RMK A01 T01351103  RH  018%=      5-min Rain = 0
KTIS 110220Z 02010G16KT 14/M10 A2985 RMK A01 T01381097  RH  019%=      5-min Rain = 0
KTIS 110225Z 03012KT 15/M10 A2985 RMK A01 T01481096  RH  018%=      5-min Rain = 0
KTIS 110230Z 03011KT 15/M10 A2986 RMK A01 T01511096  RH  018%=      5-min Rain = 0
KTIS 110235Z 03011KT 15/M10 A2986 RMK A01 T01471095  RH  018%=      5-min Rain = 0
KTIS 110240Z 03011KT 15/M09 A2986 RMK A01 T01461093  RH  018%=      5-min Rain = 0
KTIS 110245Z 03010G15KT 15/M09 A2987 RMK A01 T01481091  RH  018%=      5-min Rain = 0
KTIS 110250Z 02009KT 15/M09 A2987 RMK A01 T01471091  RH  019%=      5-min Rain = 0
KTIS 110255Z 02009KT 14/M09 A2988 RMK A01 T01431090  RH  019%=      5-min Rain = 0
KTIS 110300Z 02009KT 14/M09 A2988 RMK A01 T01411088  RH  020%=      5-min Rain = 0
KTIS 110305Z 02011KT 14/M09 A2989 RMK A01 T01431088  RH  020%=      5-min Rain = 0
KTIS 110310Z 02009KT 14/M09 A2989 RMK A01 T01381089  RH  020%=      5-min Rain = 0
KTIS 110315Z 01008KT 13/M09 A2989 RMK A01 T01321090  RH  021%=      5-min Rain = 0
KTIS 110320Z 01008KT 13/M09 A2989 RMK A01 T01251091  RH  022%=      5-min Rain = 0
KTIS 110325Z 02008KT 12/M09 A2989 RMK A01 T01231090  RH  022%=      5-min Rain = 0
KTIS 110330Z 02008KT 12/M09 A299 RMK A01 T01241090  RH  022%=      5-min Rain = 0
KTIS 110335Z 02009KT 13/M09 A299 RMK A01 T01261088  RH  022%=      5-min Rain = 0
KTIS 110340Z 02008KT 13/M09 A299 RMK A01 T01261088  RH  022%=      5-min Rain = 0
KTIS 110345Z 01008KT 12/M09 A2991 RMK A01 T01231087  RH  023%=      5-min Rain = 0
KTIS 110350Z 02012G17KT 13/M08 A2991 RMK A01 T01291083  RH  022%=      5-min Rain = 0
KTIS 110355Z 02012KT 14/M08 A2992 RMK A01 T01401080  RH  021%=      5-min Rain = 0
KTIS 110400Z 01011G16KT 14/M08 A2992 RMK A01 T01421080  RH  021%=      5-min Rain = 0
KTIS 110405Z 01009KT 14/M08 A2993 RMK A01 T01391080  RH  021%=      5-min Rain = 0
KTIS 110410Z 01009KT 14/M08 A2993 RMK A01 T01361080  RH  022%=      5-min Rain = 0
KTIS 110415Z 02009G14KT 14/M08 A2994 RMK A01 T01351079  RH  022%=      5-min Rain = 0
KTIS 110420Z 02011G16KT 13/M08 A2994 RMK A01 T01331078  RH  022%=      5-min Rain = 0
KTIS 110425Z 02013G18KT 13/M08 A2994 RMK A01 T01341075  RH  023%=      5-min Rain = 0
KTIS 110430Z 01012G18KT 13/M07 A2995 RMK A01 T01341072  RH  023%=      5-min Rain = 0
KTIS 110435Z 02013KT 13/M07 A2996 RMK A01 T01331068  RH  024%=      5-min Rain = 0
KTIS 110440Z 02013G20KT 13/M06 A2996 RMK A01 T01341062  RH  025%=      5-min Rain = 0
KTIS 110445Z 01014G21KT 13/M06 A2997 RMK A01 T01331056  RH  027%=      5-min Rain = 0
KTIS 110450Z 02017G24KT 13/M06 A2998 RMK A01 T01321056  RH  027%=      5-min Rain = 0
KTIS 110455Z 02023G29KT 13/M06 A2998 RMK A01 T01291055  RH  027%=      5-min Rain = 0
KTIS 110500Z 02025G30KT 13/M05 A2999 RMK A01 T01281053  RH  028%=      5-min Rain = 0
KTIS 110505Z 02022G29KT 13/M05 A30 RMK A01 T01271052  RH  029%=      5-min Rain = 0
KTIS 110510Z 02019G25KT 12/M05 A30 RMK A01 T01241052  RH  029%=      5-min Rain = 0
KTIS 110515Z 03020KT 12/M05 A30 RMK A01 T01221050  RH  030%=      5-min Rain = 0
KTIS 110520Z 02019G25KT 12/M05 A3001 RMK A01 T01201050  RH  030%=      5-min Rain = 0
KTIS 110525Z 02019G24KT 12/M05 A3001 RMK A01 T01191049  RH  031%=      5-min Rain = 0
KTIS 110530Z 02018G24KT 12/M05 A3001 RMK A01 T01171049  RH  031%=      5-min Rain = 0
KTIS 110535Z 02018G24KT 12/M05 A3002 RMK A01 T01171049  RH  031%=      5-min Rain = 0
KTIS 110540Z 02018G25KT 12/M05 A3002 RMK A01 T01161049  RH  032%=      5-min Rain = 0
KTIS 110545Z 02021G28KT 12/M05 A3002 RMK A01 T01151048  RH  032%=      5-min Rain = 0
KTIS 110550Z 02021G27KT 12/M05 A3002 RMK A01 T01151047  RH  032%=      5-min Rain = 0
KTIS 110555Z 02022G28KT 11/M05 A3002 RMK A01 T01141046  RH  033%=      5-min Rain = 0

Page generated in 0.0232 seconds.